createdAt,value
2023-02-11T00:00:17.287Z,81.40
2023-02-11T00:02:49.852Z,81.48
2023-02-11T00:05:22.371Z,80.86
2023-02-11T00:07:54.924Z,81.42
2023-02-11T00:10:27.426Z,81.06
2023-02-11T00:12:59.975Z,80.86
2023-02-11T00:15:32.442Z,80.89
2023-02-11T00:18:05.034Z,81.24
2023-02-11T00:20:39.878Z,80.86
2023-02-11T00:23:12.933Z,80.49
2023-02-11T00:25:45.986Z,80.66
2023-02-11T00:28:18.552Z,80.89
2023-02-11T00:30:58.283Z,81.15
2023-02-11T00:33:30.866Z,81.13
2023-02-11T00:36:10.335Z,80.81
2023-02-11T00:38:44.786Z,80.55
2023-02-11T00:41:18.552Z,80.23
2023-02-11T00:43:51.760Z,79.51
2023-02-11T00:46:24.625Z,80.40
2023-02-11T00:48:57.981Z,80.47
2023-02-11T00:51:30.835Z,80.04
2023-02-11T00:54:05.377Z,80.31
2023-02-11T00:56:38.063Z,80.30
2023-02-11T00:59:10.681Z,80.15
2023-02-11T01:01:43.427Z,80.08
2023-02-11T01:04:16.069Z,80.48
2023-02-11T01:06:48.692Z,80.47
2023-02-11T01:09:21.301Z,80.59
2023-02-11T01:11:53.793Z,80.01
2023-02-11T01:14:26.396Z,80.52
2023-02-11T01:16:58.990Z,80.32
2023-02-11T01:19:31.595Z,80.46
2023-02-11T01:22:05.288Z,80.47
2023-02-11T01:24:37.954Z,80.61
2023-02-11T01:27:10.461Z,80.46
2023-02-11T01:29:43.079Z,80.01
2023-02-11T01:32:15.714Z,80.41
2023-02-11T01:34:48.389Z,80.98
2023-02-11T01:37:21.008Z,79.90
2023-02-11T01:39:53.757Z,80.51
2023-02-11T01:42:26.369Z,80.56
2023-02-11T01:45:21.945Z,80.22
2023-02-11T01:47:54.504Z,80.60
2023-02-11T01:50:27.134Z,81.03
2023-02-11T01:53:20.012Z,80.78
2023-02-11T01:56:13.552Z,80.81
2023-02-11T01:58:51.518Z,80.43
2023-02-11T02:01:27.571Z,80.64
2023-02-11T02:04:06.052Z,81.31
2023-02-11T02:06:55.973Z,81.55
2023-02-11T02:09:36.761Z,81.47
2023-02-11T02:12:10.109Z,81.12
2023-02-11T02:14:43.134Z,81.47
2023-02-11T02:17:43.066Z,81.72
2023-02-11T02:20:52.924Z,81.61
2023-02-11T02:24:09.056Z,81.50
2023-02-11T02:27:03.662Z,81.31
2023-02-11T02:30:25.959Z,81.26
2023-02-11T02:33:24.794Z,81.36
2023-02-11T02:36:34.418Z,82.13
2023-02-11T02:39:15.659Z,82.00
2023-02-11T02:41:50.858Z,81.46
2023-02-11T02:44:24.653Z,82.38
2023-02-11T02:46:58.053Z,82.00
2023-02-11T02:49:30.636Z,81.34
2023-02-11T02:52:57.176Z,81.64
2023-02-11T02:55:47.952Z,81.87
2023-02-11T02:58:54.038Z,82.00
2023-02-11T03:02:06.691Z,81.97
2023-02-11T03:04:57.544Z,82.01
2023-02-11T03:07:47.416Z,82.45
2023-02-11T03:10:28.137Z,82.10
2023-02-11T03:13:03.717Z,82.29
2023-02-11T03:15:46.069Z,82.14
2023-02-11T03:18:25.033Z,82.04
2023-02-11T03:20:59.942Z,82.40
2023-02-11T03:23:41.342Z,82.22
2023-02-11T03:26:43.754Z,82.53
2023-02-11T03:29:49.320Z,82.78
2023-02-11T03:32:50.997Z,81.97
2023-02-11T03:35:35.439Z,82.44
2023-02-11T03:38:21.565Z,81.92
2023-02-11T03:40:56.609Z,82.30
2023-02-11T03:43:38.799Z,81.83
2023-02-11T03:46:18.124Z,82.40
2023-02-11T03:48:58.722Z,82.38
2023-02-11T03:51:33.800Z,82.58
2023-02-11T03:54:14.682Z,82.08
2023-02-11T03:56:56.469Z,82.48
2023-02-11T03:59:29.364Z,82.16
2023-02-11T04:02:02.016Z,81.84
2023-02-11T04:04:34.566Z,82.57
2023-02-11T04:07:07.098Z,82.55
2023-02-11T04:09:39.676Z,82.50
2023-02-11T04:12:12.405Z,82.71
2023-02-11T04:14:45.266Z,82.52
2023-02-11T04:17:18.567Z,82.92
2023-02-11T04:19:51.179Z,81.90
2023-02-11T04:22:23.779Z,82.68
2023-02-11T04:24:56.565Z,82.71
2023-02-11T04:27:29.164Z,82.74
2023-02-11T04:30:02.089Z,82.32
2023-02-11T04:32:34.822Z,82.91
2023-02-11T04:35:07.982Z,82.19
2023-02-11T04:37:40.832Z,83.50
2023-02-11T04:40:13.524Z,82.59
2023-02-11T04:42:46.125Z,82.83
2023-02-11T04:45:18.677Z,82.90
2023-02-11T04:47:51.310Z,82.95
2023-02-11T04:50:24.256Z,82.93
2023-02-11T04:52:56.926Z,82.90
2023-02-11T04:55:29.630Z,82.97
2023-02-11T04:58:02.267Z,82.73
2023-02-11T05:00:34.890Z,82.37
2023-02-11T05:03:07.393Z,82.48
2023-02-11T05:05:41.598Z,82.78
2023-02-11T05:08:14.186Z,82.86
2023-02-11T05:10:48.017Z,83.38
2023-02-11T05:13:20.592Z,83.02
2023-02-11T05:15:53.450Z,82.49
2023-02-11T05:18:26.237Z,82.90
2023-02-11T05:20:58.853Z,82.63
2023-02-11T05:23:31.449Z,83.19
2023-02-11T05:26:04.949Z,83.43
2023-02-11T05:28:40.409Z,83.08
2023-02-11T05:31:14.581Z,82.97
2023-02-11T05:33:47.358Z,82.66
2023-02-11T05:36:20.019Z,83.39
2023-02-11T05:38:52.525Z,83.25
2023-02-11T05:41:25.186Z,83.33
2023-02-11T05:43:57.786Z,83.22
2023-02-11T05:46:30.438Z,83.01
2023-02-11T05:49:03.929Z,83.93
2023-02-11T05:51:36.953Z,83.56
2023-02-11T05:54:09.697Z,84.34
2023-02-11T05:56:44.835Z,83.85
2023-02-11T05:59:17.635Z,83.93
2023-02-11T06:01:50.220Z,84.02
2023-02-11T06:04:22.863Z,84.03
2023-02-11T06:06:55.393Z,83.73
2023-02-11T06:09:28.019Z,83.92
2023-02-11T06:12:00.599Z,83.34
2023-02-11T06:14:34.216Z,83.62
2023-02-11T06:17:07.102Z,84.37
2023-02-11T06:19:39.690Z,84.50
2023-02-11T06:22:12.334Z,84.21
2023-02-11T06:25:00.225Z,83.63
2023-02-11T06:27:33.795Z,84.19
2023-02-11T06:30:08.138Z,84.33
2023-02-11T06:32:45.402Z,84.34
2023-02-11T06:35:18.565Z,83.95
2023-02-11T06:37:53.756Z,84.18
2023-02-11T06:40:26.383Z,84.27
2023-02-11T06:43:00.141Z,84.75
2023-02-11T06:45:32.814Z,84.10
2023-02-11T06:48:05.632Z,83.76
2023-02-11T06:50:38.423Z,84.02
2023-02-11T06:53:11.049Z,84.17
2023-02-11T06:55:43.742Z,84.12
2023-02-11T06:58:16.323Z,83.66
2023-02-11T07:00:48.853Z,83.96
2023-02-11T07:03:21.458Z,83.40
2023-02-11T07:05:53.994Z,83.45
2023-02-11T07:08:26.806Z,84.05
2023-02-11T07:10:59.499Z,84.37
2023-02-11T07:13:32.093Z,84.77
2023-02-11T07:16:12.405Z,83.96
2023-02-11T07:18:46.916Z,84.83
2023-02-11T07:21:22.334Z,85.25
2023-02-11T07:23:54.954Z,84.90
2023-02-11T07:26:28.923Z,84.61
2023-02-11T07:29:02.056Z,84.36
2023-02-11T07:31:34.677Z,84.67
2023-02-11T07:34:07.340Z,84.13
2023-02-11T07:36:40.023Z,84.59
2023-02-11T07:39:12.879Z,84.42
2023-02-11T07:41:47.738Z,84.34
2023-02-11T07:44:20.320Z,84.26
2023-02-11T07:46:53.261Z,84.06
2023-02-11T07:49:25.807Z,84.05
2023-02-11T07:51:58.315Z,83.94
2023-02-11T07:54:30.848Z,83.63
2023-02-11T07:57:03.601Z,84.17
2023-02-11T07:59:36.111Z,84.68
2023-02-11T08:02:10.359Z,84.16
2023-02-11T08:04:43.063Z,84.05
2023-02-11T08:07:17.590Z,84.05
2023-02-11T08:09:50.193Z,84.11
2023-02-11T08:12:22.696Z,84.25
2023-02-11T08:14:56.240Z,83.89
2023-02-11T08:17:28.804Z,84.39
2023-02-11T08:20:01.568Z,84.19
2023-02-11T08:22:34.824Z,84.25
2023-02-11T08:25:07.825Z,84.51
2023-02-11T08:27:40.394Z,84.58
2023-02-11T08:30:14.129Z,84.62
2023-02-11T08:32:47.453Z,84.82
2023-02-11T08:35:20.048Z,84.79
2023-02-11T08:37:53.231Z,84.56
2023-02-11T08:40:25.801Z,85.19
2023-02-11T08:42:58.300Z,84.26
2023-02-11T08:45:30.919Z,84.30
2023-02-11T08:48:03.566Z,84.57
2023-02-11T08:50:39.847Z,84.32
2023-02-11T08:53:12.492Z,84.04
2023-02-11T08:55:51.250Z,84.04
2023-02-11T08:58:24.023Z,84.17
2023-02-11T09:00:56.769Z,84.50
2023-02-11T09:03:29.715Z,84.53
2023-02-11T09:06:06.808Z,84.69
2023-02-11T09:08:45.278Z,84.50
2023-02-11T09:11:21.924Z,84.70
2023-02-11T09:13:54.829Z,83.75
2023-02-11T09:16:31.940Z,83.70
2023-02-11T09:19:05.647Z,84.87
2023-02-11T09:21:38.330Z,84.04
2023-02-11T09:24:11.516Z,83.30
2023-02-11T09:26:44.325Z,82.85
2023-02-11T09:29:17.012Z,83.35
2023-02-11T09:31:50.280Z,83.36
2023-02-11T09:34:23.066Z,82.71
2023-02-11T09:36:55.669Z,82.28
2023-02-11T09:39:29.293Z,82.36
2023-02-11T09:42:37.949Z,81.53
2023-02-11T09:45:28.428Z,81.97
2023-02-11T09:48:34.684Z,81.24
2023-02-11T09:51:20.625Z,81.58
2023-02-11T09:54:02.153Z,80.72
2023-02-11T09:56:36.783Z,80.83
2023-02-11T09:59:17.647Z,80.63
2023-02-11T10:02:02.382Z,81.19
2023-02-11T10:04:56.295Z,81.54
2023-02-11T10:07:46.193Z,81.09
2023-02-11T10:10:47.423Z,81.16
2023-02-11T10:13:46.983Z,81.46
2023-02-11T10:16:22.525Z,80.52
2023-02-11T10:19:21.376Z,80.83
2023-02-11T10:22:25.476Z,80.32
2023-02-11T10:25:00.432Z,80.17
2023-02-11T10:27:36.556Z,80.21
2023-02-11T10:30:40.845Z,79.73
2023-02-11T10:33:23.613Z,79.68
2023-02-11T10:35:56.286Z,79.97
2023-02-11T10:38:28.879Z,79.73
2023-02-11T10:41:01.383Z,79.99
2023-02-11T10:43:34.964Z,79.94
2023-02-11T10:46:19.271Z,80.43
2023-02-11T10:48:53.779Z,79.52
2023-02-11T10:51:34.224Z,80.22
2023-02-11T10:54:08.243Z,80.69
2023-02-11T10:56:58.835Z,80.96
2023-02-11T10:59:40.426Z,80.04
2023-02-11T11:02:34.428Z,80.55
2023-02-11T11:05:18.841Z,80.69
2023-02-11T11:07:59.616Z,79.97
2023-02-11T11:10:46.509Z,80.49
2023-02-11T11:13:35.673Z,80.43
2023-02-11T11:16:29.230Z,80.45
2023-02-11T11:19:08.060Z,80.68
2023-02-11T11:21:44.118Z,80.73
2023-02-11T11:24:31.272Z,79.93
2023-02-11T11:27:05.309Z,79.72
2023-02-11T11:29:46.039Z,79.30
2023-02-11T11:32:23.979Z,79.01
2023-02-11T11:35:08.455Z,79.10
2023-02-11T11:37:42.306Z,79.06
2023-02-11T11:40:25.653Z,79.43
2023-02-11T11:43:23.065Z,79.39
2023-02-11T11:45:59.707Z,78.98
2023-02-11T11:48:46.875Z,78.44
2023-02-11T11:51:19.985Z,78.61
2023-02-11T11:54:12.117Z,78.09
2023-02-11T11:57:00.524Z,78.25
2023-02-11T11:59:33.214Z,78.19
2023-02-11T12:02:26.439Z,77.94
2023-02-11T12:05:16.009Z,78.14
2023-02-11T12:08:04.281Z,78.31
2023-02-11T12:11:10.631Z,77.98
2023-02-11T12:14:27.121Z,78.34
2023-02-11T12:17:38.853Z,77.58
2023-02-11T12:20:36.372Z,77.82
2023-02-11T12:24:06.394Z,77.31
2023-02-11T12:26:52.290Z,77.19
2023-02-11T12:29:47.724Z,77.74
2023-02-11T12:32:49.543Z,77.73
2023-02-11T12:35:43.129Z,76.44
2023-02-11T12:38:46.943Z,77.17
2023-02-11T12:42:00.999Z,77.22
2023-02-11T12:45:02.980Z,77.46
2023-02-11T12:47:44.748Z,77.84
2023-02-11T12:51:20.918Z,77.12
2023-02-11T12:54:21.708Z,76.96
2023-02-11T12:57:30.981Z,76.27
2023-02-11T13:00:33.743Z,77.04
2023-02-11T13:03:29.624Z,76.07
2023-02-11T13:06:13.186Z,76.28
2023-02-11T13:08:51.320Z,75.90
2023-02-11T13:11:29.557Z,75.55
2023-02-11T13:14:24.435Z,75.00
2023-02-11T13:16:58.670Z,74.52
2023-02-11T13:19:49.099Z,74.70
2023-02-11T13:22:38.549Z,74.97
2023-02-11T13:25:43.194Z,75.19
2023-02-11T13:28:48.307Z,75.20
2023-02-11T13:31:21.077Z,76.33
2023-02-11T13:33:54.312Z,76.92
2023-02-11T13:36:32.740Z,76.61
2023-02-11T13:39:06.794Z,76.00
2023-02-11T13:41:41.893Z,76.28
2023-02-11T13:44:19.244Z,77.23
2023-02-11T13:47:08.009Z,76.52
2023-02-11T13:49:49.270Z,75.97
2023-02-11T13:52:34.893Z,75.89
2023-02-11T13:55:13.536Z,75.89
2023-02-11T13:58:06.160Z,75.75
2023-02-11T14:00:38.662Z,75.96
2023-02-11T14:03:29.792Z,75.63
2023-02-11T14:06:26.805Z,75.30
2023-02-11T14:09:14.633Z,75.15
2023-02-11T14:11:52.212Z,75.31
2023-02-11T14:14:32.079Z,74.49
2023-02-11T14:17:07.708Z,74.35
2023-02-11T14:19:47.194Z,74.60
2023-02-11T14:22:27.725Z,73.80
2023-02-11T14:25:18.374Z,75.09
2023-02-11T14:27:59.225Z,75.18
2023-02-11T14:30:53.874Z,75.77
2023-02-11T14:34:37.965Z,75.39
2023-02-11T14:37:30.192Z,76.51
2023-02-11T14:40:29.342Z,76.31
2023-02-11T14:43:29.851Z,77.21
2023-02-11T14:46:03.318Z,77.27
2023-02-11T14:48:43.173Z,76.94
2023-02-11T14:51:26.554Z,76.49
2023-02-11T14:54:13.373Z,76.43
2023-02-11T14:56:46.769Z,76.88
2023-02-11T14:59:22.871Z,75.80
2023-02-11T15:01:55.480Z,75.50
2023-02-11T15:04:33.009Z,75.36
2023-02-11T15:07:10.620Z,76.09
2023-02-11T15:09:49.494Z,76.30
2023-02-11T15:12:28.326Z,76.30
2023-02-11T15:15:01.356Z,76.57
2023-02-11T15:17:34.127Z,75.93
2023-02-11T15:20:15.802Z,76.55
2023-02-11T15:22:59.655Z,76.90
2023-02-11T15:25:34.151Z,77.31
2023-02-11T15:28:23.976Z,76.87
2023-02-11T15:31:17.288Z,76.63
2023-02-11T15:33:51.822Z,77.31
2023-02-11T15:36:28.812Z,78.44
2023-02-11T15:39:37.435Z,79.05
2023-02-11T15:42:40.766Z,77.94
2023-02-11T15:45:20.510Z,77.67
2023-02-11T15:47:59.231Z,78.22
2023-02-11T15:50:37.149Z,78.07
2023-02-11T15:53:37.048Z,78.30
2023-02-11T15:56:24.361Z,78.62
2023-02-11T15:59:01.209Z,78.53
2023-02-11T16:01:37.213Z,78.21
2023-02-11T16:04:17.141Z,78.86
2023-02-11T16:06:51.563Z,78.72
2023-02-11T16:09:31.484Z,78.33
2023-02-11T16:12:27.100Z,78.39
2023-02-11T16:15:03.835Z,79.09
2023-02-11T16:17:36.430Z,78.75
2023-02-11T16:20:19.471Z,79.13
2023-02-11T16:22:52.641Z,78.94
2023-02-11T16:25:25.257Z,79.61
2023-02-11T16:27:58.071Z,79.53
2023-02-11T16:30:40.615Z,79.61
2023-02-11T16:33:13.317Z,79.71
2023-02-11T16:35:47.658Z,79.89
2023-02-11T16:38:20.239Z,79.57
2023-02-11T16:40:53.074Z,79.59
2023-02-11T16:43:25.864Z,80.04
2023-02-11T16:45:58.977Z,80.26
2023-02-11T16:48:32.746Z,80.39
2023-02-11T16:51:08.013Z,79.82
2023-02-11T16:53:40.700Z,79.85
2023-02-11T16:56:18.354Z,79.66
2023-02-11T16:58:51.014Z,79.68
2023-02-11T17:01:23.700Z,80.33
2023-02-11T17:03:56.356Z,80.13
2023-02-11T17:06:29.149Z,80.14
2023-02-11T17:09:02.119Z,80.79
2023-02-11T17:11:34.623Z,80.43
2023-02-11T17:14:07.102Z,80.19
2023-02-11T17:16:40.312Z,80.32
2023-02-11T17:19:16.052Z,80.43
2023-02-11T17:21:52.030Z,79.88
2023-02-11T17:24:24.586Z,80.32
2023-02-11T17:26:57.374Z,80.55
2023-02-11T17:29:30.043Z,80.91
2023-02-11T17:32:02.625Z,80.91
2023-02-11T17:34:35.399Z,80.57
2023-02-11T17:37:09.379Z,80.14
2023-02-11T17:39:42.144Z,79.90
2023-02-11T17:42:14.823Z,80.74
2023-02-11T17:44:47.410Z,80.52
2023-02-11T17:47:20.024Z,80.38
2023-02-11T17:49:52.597Z,81.11
2023-02-11T17:52:27.835Z,80.52
2023-02-11T17:55:00.557Z,80.13
2023-02-11T17:57:33.516Z,80.39
2023-02-11T18:00:08.084Z,79.36
2023-02-11T18:02:40.716Z,79.75
2023-02-11T18:05:13.208Z,80.58
2023-02-11T18:07:46.272Z,80.35
2023-02-11T18:10:19.035Z,80.00
2023-02-11T18:12:51.544Z,79.99
2023-02-11T18:15:24.159Z,79.95
2023-02-11T18:17:56.761Z,80.59
2023-02-11T18:20:29.351Z,80.52
2023-02-11T18:23:02.681Z,80.43
2023-02-11T18:25:35.594Z,80.19
2023-02-11T18:28:08.390Z,80.43
2023-02-11T18:30:40.932Z,80.77
2023-02-11T18:33:14.520Z,80.55
2023-02-11T18:35:49.017Z,80.42
2023-02-11T18:38:23.090Z,80.09
2023-02-11T18:40:58.451Z,80.34
2023-02-11T18:43:33.707Z,79.99
2023-02-11T18:46:10.622Z,80.76
2023-02-11T18:48:44.865Z,80.51
2023-02-11T18:51:18.776Z,79.74
2023-02-11T18:53:52.211Z,79.68
2023-02-11T18:56:27.795Z,79.67
2023-02-11T18:59:01.378Z,79.86
2023-02-11T19:01:34.566Z,79.30
2023-02-11T19:04:07.281Z,79.54
2023-02-11T19:06:39.828Z,79.56
2023-02-11T19:09:17.037Z,79.51
2023-02-11T19:11:54.036Z,79.08
2023-02-11T19:14:31.554Z,78.42
2023-02-11T19:17:07.373Z,78.61
2023-02-11T19:19:41.018Z,78.43
2023-02-11T19:22:13.784Z,78.79
2023-02-11T19:24:46.538Z,78.64
2023-02-11T19:27:19.143Z,78.48
2023-02-11T19:29:51.616Z,78.23
2023-02-11T19:32:24.302Z,78.50
2023-02-11T19:34:56.780Z,78.04
2023-02-11T19:37:29.262Z,78.62
2023-02-11T19:40:01.906Z,79.13
2023-02-11T19:42:34.637Z,78.64
2023-02-11T19:45:08.254Z,78.55
2023-02-11T19:47:40.842Z,78.90
2023-02-11T19:50:13.419Z,78.78
2023-02-11T19:52:45.969Z,79.16
2023-02-11T19:55:18.753Z,79.03
2023-02-11T19:57:51.258Z,78.89
2023-02-11T20:00:23.874Z,79.17
2023-02-11T20:02:56.520Z,79.19
2023-02-11T20:05:29.141Z,78.94
2023-02-11T20:08:01.638Z,78.75
2023-02-11T20:10:34.853Z,78.74
2023-02-11T20:13:07.345Z,78.72
2023-02-11T20:15:40.016Z,78.73
2023-02-11T20:18:12.708Z,78.38
2023-02-11T20:20:45.299Z,78.39
2023-02-11T20:23:17.955Z,78.45
2023-02-11T20:25:50.871Z,78.32
2023-02-11T20:28:23.666Z,78.44
2023-02-11T20:30:59.975Z,78.01
2023-02-11T20:33:34.807Z,77.55
2023-02-11T20:36:10.628Z,77.65
2023-02-11T20:38:44.133Z,77.57
2023-02-11T20:41:32.460Z,77.68
2023-02-11T20:44:08.575Z,78.04
2023-02-11T20:46:45.764Z,77.74
2023-02-11T20:49:23.943Z,78.31
2023-02-11T20:51:58.432Z,78.13
2023-02-11T20:54:31.227Z,77.86
2023-02-11T20:57:04.128Z,77.97
2023-02-11T20:59:36.721Z,78.09
2023-02-11T21:02:10.328Z,78.18
2023-02-11T21:04:43.097Z,78.19
2023-02-11T21:07:16.023Z,77.87
2023-02-11T21:09:48.582Z,78.17
2023-02-11T21:12:21.204Z,77.78
2023-02-11T21:14:54.846Z,77.61
2023-02-11T21:17:27.577Z,77.66
2023-02-11T21:20:00.135Z,77.54
2023-02-11T21:22:32.758Z,77.45
2023-02-11T21:25:06.115Z,76.92
2023-02-11T21:27:38.743Z,76.47
2023-02-11T21:30:13.036Z,76.85
2023-02-11T21:32:45.706Z,76.43
2023-02-11T21:35:18.256Z,76.31
2023-02-11T21:37:51.127Z,75.85
2023-02-11T21:40:27.430Z,76.19
2023-02-11T21:43:00.019Z,75.73
2023-02-11T21:45:32.777Z,75.26
2023-02-11T21:48:05.462Z,74.99
2023-02-11T21:50:43.352Z,75.05
2023-02-11T21:53:16.034Z,74.54
2023-02-11T21:55:51.146Z,74.61
2023-02-11T21:58:23.937Z,74.86
2023-02-11T22:00:56.602Z,74.26
2023-02-11T22:03:29.168Z,73.98
2023-02-11T22:06:10.548Z,74.18
2023-02-11T22:08:43.394Z,73.83
2023-02-11T22:11:16.692Z,73.76
2023-02-11T22:13:57.769Z,73.82
2023-02-11T22:16:31.655Z,73.37
2023-02-11T22:19:06.033Z,73.10
2023-02-11T22:21:39.163Z,72.59
2023-02-11T22:24:11.846Z,72.76
2023-02-11T22:26:44.617Z,72.60
2023-02-11T22:29:17.302Z,72.55
2023-02-11T22:31:50.013Z,73.00
2023-02-11T22:34:22.532Z,72.69
2023-02-11T22:36:55.345Z,72.34
2023-02-11T22:39:29.372Z,72.44
2023-02-11T22:42:02.012Z,72.39
2023-02-11T22:44:34.482Z,72.36
2023-02-11T22:47:07.064Z,71.84
2023-02-11T22:49:41.300Z,72.22
2023-02-11T22:52:13.929Z,71.91
2023-02-11T22:54:46.510Z,71.69
2023-02-11T22:57:19.168Z,72.05
2023-02-11T22:59:51.696Z,71.72
2023-02-11T23:02:24.486Z,71.83
2023-02-11T23:04:57.057Z,72.39
2023-02-11T23:07:29.827Z,71.91
2023-02-11T23:10:02.388Z,71.84
2023-02-11T23:12:34.956Z,72.13
2023-02-11T23:15:08.143Z,71.56
2023-02-11T23:17:40.769Z,71.42
2023-02-11T23:20:13.593Z,71.62
2023-02-11T23:22:46.232Z,71.78
2023-02-11T23:25:18.775Z,71.70
2023-02-11T23:27:51.322Z,71.13
2023-02-11T23:30:24.264Z,71.25
2023-02-11T23:32:56.789Z,71.22
2023-02-11T23:35:29.361Z,71.53
2023-02-11T23:38:02.266Z,70.83
2023-02-11T23:40:34.919Z,71.20
2023-02-11T23:43:07.575Z,71.12
2023-02-11T23:45:40.127Z,71.33
2023-02-11T23:48:12.699Z,71.17
2023-02-11T23:50:47.675Z,70.99
2023-02-11T23:53:20.584Z,70.95
2023-02-11T23:55:53.671Z,70.89
2023-02-11T23:58:26.398Z,71.36
